Terminal Aerodrome Forecast
Issued by NWS Binghamton, NY

Home | Current Version | Previous Version | Text Only | Print | Product List | Glossary On
Versions: 1 2 3 4 5 6 7 8 9 10 11 12 13 14 15 16 17 18
000
FTUS41 KBGM 250536
TAFBGM
TAF
KBGM 250536Z 2506/2606 12011KT P6SM OVC080
      TEMPO 2509/2512 -SHRA OVC040
     FM251200 11014KT P6SM -RA OVC030
     FM251500 11013KT 4SM -RA BR OVC015
     FM251800 11012KT P6SM OVC012
     FM252300 11007KT P6SM -SHRA OVC008=

USA.gov is the U.S. government's official web portal to all federal, state and local government web resources and services.